Time;durP1;ratioP1;P1;durP2;ratioP2;P2;SDS_P1;SDS_P2;PMS_P1;PMS_P2;Temp;Humidity;BMP_temperature;BMP_pressure;BME280_temperature;BME280_humidity;BME280_pressure;Samples;Min_cycle;Max_cycle;Signal;HPM_P1;HPM_P2
2022/12/06 00:01:15;;;;;;;71.13;29.10;;;;;;;8.37;79.86;100560.53;3140380;28;20752;-66
2022/12/06 00:02:47;;;;;;;67.10;29.48;;;;;;;8.32;79.60;100555.47;3140225;28;20059;-65
2022/12/06 00:04:19;;;;;;;67.13;30.48;;;;;;;8.39;79.85;100564.84;3140605;28;20483;-65
2022/12/06 00:05:50;;;;;;;69.50;30.83;;;;;;;8.40;79.83;100569.16;3140137;28;20048;-66
2022/12/06 00:07:22;;;;;;;68.90;30.23;;;;;;;8.39;79.71;100559.66;3140192;28;20846;-66
2022/12/06 00:08:54;;;;;;;73.45;31.17;;;;;;;8.41;79.73;100560.47;3140409;28;20056;-66
2022/12/06 00:10:26;;;;;;;72.40;33.13;;;;;;;8.40;79.57;100563.97;3139866;28;20136;-66
2022/12/06 00:11:59;;;;;;;71.55;30.08;;;;;;;8.40;79.74;100565.69;3140593;28;20048;-66
2022/12/06 00:13:32;;;;;;;72.88;30.52;;;;;;;8.39;79.88;100559.66;3140050;28;20054;-66
2022/12/06 00:15:04;;;;;;;;;;;;;;;8.31;79.59;100558.97;3140348;28;20109;-66
2022/12/06 00:16:36;;;;;;;67.68;30.02;;;;;;;8.32;80.14;100563.25;3145363;28;20015;-66
2022/12/06 00:18:08;;;;;;;70.90;30.48;;;;;;;8.35;79.72;100559.75;3145483;28;20044;-66
2022/12/06 00:19:40;;;;;;;67.30;28.77;;;;;;;8.28;80.06;100543.47;3145338;28;20048;-66
2022/12/06 00:21:14;;;;;;;74.47;30.02;;;;;;;8.37;79.94;100553.63;3144785;28;20059;-66
2022/12/06 00:22:46;;;;;;;68.22;27.88;;;;;;;8.30;79.89;100539.09;3144923;28;20155;-66
2022/12/06 00:24:20;;;;;;;66.85;28.77;;;;;;;8.35;79.75;100545.03;3144979;28;20712;-66
2022/12/06 00:25:52;;;;;;;65.32;28.30;;;;;;;8.37;79.80;100550.16;3145480;28;20087;-66
2022/12/06 00:27:24;;;;;;;72.03;29.67;;;;;;;8.36;79.62;100538.94;3145046;28;20044;-66
2022/12/06 00:29:00;;;;;;;65.00;29.00;;;;;;;8.41;79.62;100549.25;3145352;28;20565;-66
2022/12/06 00:30:32;;;;;;;71.88;30.05;;;;;;;8.28;79.47;100533.09;3145194;28;20060;-66
2022/12/06 00:32:04;;;;;;;69.22;29.98;;;;;;;8.39;79.81;100549.28;3145108;28;20578;-65
2022/12/06 00:33:36;;;;;;;63.63;28.77;;;;;;;8.38;79.75;100555.34;3145127;28;20580;-66
2022/12/06 00:35:08;;;;;;;59.95;28.42;;;;;;;8.36;79.40;100548.47;3144946;28;20206;-66
2022/12/06 00:36:41;;;;;;;66.25;28.02;;;;;;;8.22;79.72;100525.44;3144915;28;20674;-66
2022/12/06 00:38:13;;;;;;;62.35;27.00;;;;;;;8.35;79.50;100545.03;3145318;28;20048;-66
2022/12/06 00:39:45;;;;;;;68.95;28.45;;;;;;;8.37;79.67;100544.97;3144739;28;20048;-67
2022/12/06 00:41:18;;;;;;;63.38;27.30;;;;;;;8.18;79.40;100514.28;3144957;28;20147;-66
2022/12/06 00:42:50;;;;;;;58.33;27.05;;;;;;;8.36;79.63;100538.09;3145142;28;20048;-66
2022/12/06 00:44:23;;;;;;;68.60;27.65;;;;;;;8.36;79.64;100538.09;3145097;28;20553;-66
2022/12/06 00:45:54;;;;;;;72.18;27.77;;;;;;;8.36;79.62;100533.75;3145074;28;20060;-67
2022/12/06 00:47:26;;;;;;;61.40;27.50;;;;;;;8.34;79.62;100527.75;3145043;28;20048;-66
2022/12/06 00:49:00;;;;;;;59.03;27.42;;;;;;;8.38;79.23;100531.13;3144821;28;20106;-66
2022/12/06 00:50:32;;;;;;;64.13;28.17;;;;;;;8.35;79.49;100532.03;3144852;28;20480;-66
2022/12/06 00:52:04;;;;;;;65.25;28.98;;;;;;;8.36;79.18;100532.91;3145184;28;20049;-66
2022/12/06 00:53:36;;;;;;;70.97;28.60;;;;;;;8.31;79.49;100520.03;3144737;28;20044;-66
2022/12/06 00:55:09;;;;;;;58.95;27.00;;;;;;;8.35;79.39;100526.00;3145015;28;20106;-66
2022/12/06 00:56:39;;;;;;;68.90;27.70;;;;;;;8.25;79.26;100496.81;3144596;28;20063;-64
2022/12/06 00:58:12;;;;;;;62.20;26.65;;;;;;;8.40;79.49;100527.63;3145056;28;20048;-65
2022/12/06 00:59:45;;;;;;;61.83;26.27;;;;;;;8.41;79.38;100516.34;3144773;28;20057;-65
2022/12/06 01:01:20;;;;;;;57.88;25.90;;;;;;;8.42;79.42;100517.19;3144898;28;20098;-66
2022/12/06 01:02:52;;;;;;;67.18;28.42;;;;;;;8.43;79.48;100513.72;3144494;28;20205;-66
2022/12/06 01:04:24;;;;;;;62.65;27.63;;;;;;;8.42;79.64;100504.22;3144787;28;20418;-65
2022/12/06 01:05:56;;;;;;;65.55;27.13;;;;;;;8.47;79.33;100504.13;3145067;28;20484;-65
2022/12/06 01:07:27;;;;;;;68.57;29.75;;;;;;;8.48;79.44;100503.22;3144386;28;20144;-65
2022/12/06 01:09:01;;;;;;;67.90;28.25;;;;;;;8.43;79.16;100496.41;3143152;28;20048;-65
2022/12/06 01:10:33;;;;;;;66.70;27.73;;;;;;;8.49;79.29;100504.91;3142858;28;20100;-65
2022/12/06 01:12:05;;;;;;;60.80;27.73;;;;;;;8.47;79.35;100502.38;3144871;28;20045;-65
2022/12/06 01:13:36;;;;;;;65.35;27.50;;;;;;;8.47;79.52;100501.53;3147812;28;20052;-66
2022/12/06 01:15:11;;;;;;;60.58;26.77;;;;;;;8.30;79.33;100466.41;3150754;28;20109;-65
2022/12/06 01:16:42;;;;;;;62.30;27.15;;;;;;;8.45;79.50;100492.91;3143985;28;20163;-65
2022/12/06 01:18:13;;;;;;;59.22;27.27;;;;;;;8.46;79.24;100492.00;3144980;28;20060;-65
2022/12/06 01:19:45;;;;;;;59.03;26.15;;;;;;;8.46;79.33;100484.22;3144414;28;20077;-66
2022/12/06 01:21:18;;;;;;;61.88;26.77;;;;;;;8.06;79.08;100423.78;3144331;28;20052;-65
2022/12/06 01:22:50;;;;;;;70.43;27.30;;;;;;;8.19;79.12;100438.16;3144804;28;20045;-65
2022/12/06 01:24:21;;;;;;;67.43;27.45;;;;;;;8.47;79.22;100492.00;3144737;28;20453;-66
2022/12/06 01:25:53;;;;;;;60.97;27.60;;;;;;;8.47;79.18;100494.59;3144722;28;20063;-65
2022/12/06 01:27:25;;;;;;;62.40;27.35;;;;;;;8.40;79.43;100483.50;3144477;28;20049;-65
2022/12/06 01:28:58;;;;;;;59.05;27.10;;;;;;;8.42;79.39;100486.91;3144288;28;20052;-65
2022/12/06 01:30:31;;;;;;;61.78;25.70;;;;;;;8.42;79.16;100492.09;3144393;28;20074;-64
2022/12/06 01:32:03;;;;;;;59.70;26.20;;;;;;;8.36;79.32;100492.22;3144488;28;20117;-65
2022/12/06 01:33:34;;;;;;;64.70;27.90;;;;;;;8.38;79.47;100482.69;3144127;28;20060;-65
2022/12/06 01:35:07;;;;;;;63.00;27.27;;;;;;;8.36;79.47;100481.00;3144620;28;20052;-65
2022/12/06 01:36:39;;;;;;;62.38;26.98;;;;;;;8.36;79.20;100484.44;3144478;28;20053;-65
2022/12/06 01:38:11;;;;;;;61.08;27.13;;;;;;;8.35;79.12;100487.94;3144526;28;20056;-65
2022/12/06 01:39:44;;;;;;;64.55;28.05;;;;;;;8.21;79.29;100462.31;3144158;28;20484;-65
2022/12/06 01:41:16;;;;;;;62.97;27.55;;;;;;;8.38;79.61;100484.41;3144725;28;20101;-65
2022/12/06 01:42:48;;;;;;;59.05;26.63;;;;;;;8.38;79.21;100489.59;3144146;28;20048;-65
2022/12/06 01:44:39;;;;;;;60.08;25.55;;;;;;;8.37;79.19;100490.47;3144692;28;20044;-65
2022/12/06 01:46:27;;;;;;;63.05;27.45;;;;;;;8.28;79.21;100472.53;3142185;28;20054;-65
2022/12/06 01:47:59;;;;;;;62.85;25.95;;;;;;;8.33;79.25;100481.06;3144704;28;20060;-65
2022/12/06 01:49:35;;;;;;;64.13;27.60;;;;;;;8.21;79.44;100461.47;3144606;28;20771;-65
2022/12/06 01:51:10;;;;;;;59.90;26.23;;;;;;;8.36;79.19;100484.44;3144130;28;20453;-65
2022/12/06 01:52:51;;;;;;;59.25;27.58;;;;;;;8.36;79.36;100483.59;3144200;28;20060;-65
2022/12/06 01:54:24;;;;;;;60.70;27.42;;;;;;;8.30;79.29;100474.22;3143849;28;20051;-65
2022/12/06 01:55:55;;;;;;;62.92;27.63;;;;;;;8.30;79.36;100476.81;3144920;28;20121;-65
2022/12/06 01:57:28;;;;;;;59.28;26.27;;;;;;;8.35;79.63;100482.75;3144506;28;20083;-65
2022/12/06 01:59:00;;;;;;;60.42;25.88;;;;;;;8.34;79.73;100478.44;3144041;28;20442;-66
2022/12/06 02:00:32;;;;;;;67.03;27.33;;;;;;;8.22;79.53;100455.38;3144047;28;20061;-67
2022/12/06 02:02:07;;;;;;;68.68;28.67;;;;;;;8.36;79.41;100479.25;3144540;28;20045;-65
2022/12/06 02:03:38;;;;;;;68.60;28.10;;;;;;;8.32;79.49;100469.84;3144023;28;20058;-64
2022/12/06 02:05:11;;;;;;;59.65;26.38;;;;;;;8.36;79.85;100476.66;3144160;28;20048;-65
2022/12/06 02:06:44;;;;;;;67.53;29.08;;;;;;;8.22;79.67;100447.59;3143923;28;20048;-65
2022/12/06 02:08:17;;;;;;;70.60;29.03;;;;;;;8.36;79.61;100476.66;3144487;28;20044;-66
2022/12/06 02:09:51;;;;;;;62.45;26.45;;;;;;;7.93;79.78;100399.91;3144046;28;20307;-65
2022/12/06 02:11:23;;;;;;;60.10;26.15;;;;;;;8.32;79.52;100463.81;3143696;28;20090;-65
2022/12/06 02:12:58;;;;;;;67.53;26.60;;;;;;;8.37;79.88;100467.09;3143728;28;20413;-65
2022/12/06 02:14:34;;;;;;;64.65;25.48;;;;;;;8.36;79.75;100466.25;3144308;28;20056;-65
2022/12/06 02:16:18;;;;;;;68.85;28.27;;;;;;;7.93;79.66;100397.31;3144307;28;20058;-64
2022/12/06 02:18:01;;;;;;;64.85;28.45;;;;;;;8.33;79.64;100461.16;3144175;28;20052;-65
2022/12/06 02:19:53;;;;;;;65.68;29.17;;;;;;;8.33;79.55;100458.56;3143891;28;21116;-65
2022/12/06 02:21:33;;;;;;;59.00;26.85;;;;;;;8.32;79.68;100456.88;3133576;28;20107;-66
2022/12/06 02:23:43;;;;;;;64.22;27.27;;;;;;;8.21;79.88;100438.13;3144094;28;20056;-66
2022/12/06 02:25:51;;;;;;;63.50;26.92;;;;;;;8.31;80.05;100462.97;3136036;28;20184;-66
2022/12/06 02:27:43;;;;;;;64.82;26.27;;;;;;;8.27;80.00;100458.72;3138413;28;20505;-65
2022/12/06 02:29:49;;;;;;;66.70;26.35;;;;;;;8.25;79.94;100464.81;3138649;28;20055;-65
2022/12/06 02:31:27;;;;;;;63.97;26.10;;;;;;;8.19;80.21;100455.44;3126759;28;20059;-65
2022/12/06 02:33:03;;;;;;;62.47;26.85;;;;;;;8.23;79.83;100456.25;3136041;28;20135;-65
2022/12/06 02:34:42;;;;;;;62.25;27.02;;;;;;;8.19;79.75;100447.66;3126513;28;20505;-65
2022/12/06 02:36:20;;;;;;;74.13;27.67;;;;;;;8.29;79.85;100463.88;3138588;28;20492;-65
2022/12/06 02:37:57;;;;;;;74.90;29.75;;;;;;;8.25;79.82;100463.09;3138793;28;20052;-65
2022/12/06 02:39:34;;;;;;;81.40;29.38;;;;;;;8.28;79.98;100468.22;3138587;28;20413;-66
2022/12/06 02:41:12;;;;;;;78.22;30.25;;;;;;;8.28;79.91;100465.63;3138495;28;20052;-65
2022/12/06 02:42:50;;;;;;;75.55;30.38;;;;;;;8.29;80.27;100466.47;3138563;28;20600;-65
2022/12/06 02:44:28;;;;;;;68.65;27.90;;;;;;;8.30;80.33;100471.63;3139048;28;20055;-65
2022/12/06 02:46:03;;;;;;;78.20;29.70;;;;;;;8.09;80.15;100433.25;3139045;28;20059;-65
2022/12/06 02:47:38;;;;;;;73.60;29.77;;;;;;;8.31;79.88;100468.16;3140742;28;20044;-66
2022/12/06 02:49:13;;;;;;;74.53;29.63;;;;;;;8.32;80.03;100469.00;3141085;28;20048;-65
2022/12/06 02:50:48;;;;;;;72.22;28.88;;;;;;;8.33;79.98;100471.53;3141054;28;20058;-66
2022/12/06 02:52:24;;;;;;;74.78;29.40;;;;;;;8.19;79.95;100445.94;3141379;28;20049;-66
2022/12/06 02:53:59;;;;;;;65.18;28.70;;;;;;;7.84;79.97;100397.53;3141602;28;20857;-65
2022/12/06 02:55:33;;;;;;;69.07;28.15;;;;;;;8.30;80.03;100468.16;3141027;28;20632;-66
2022/12/06 02:57:04;;;;;;;70.82;28.67;;;;;;;8.25;80.26;100460.50;3141010;28;20078;-66
2022/12/06 02:58:36;;;;;;;68.75;28.65;;;;;;;8.24;80.16;100457.94;3140945;28;20060;-66
2022/12/06 03:00:32;;;;;;;69.80;28.75;;;;;;;8.27;80.23;100466.50;3141658;28;20058;-66
2022/12/06 03:02:10;;;;;;;65.90;28.50;;;;;;;8.19;80.21;100452.84;3137999;28;20056;-66
2022/12/06 03:03:55;;;;;;;65.50;28.17;;;;;;;8.21;80.17;100451.94;3140951;28;20049;-65
2022/12/06 03:05:33;;;;;;;62.13;27.65;;;;;;;8.25;80.31;100464.81;3140800;28;20646;-66
2022/12/06 03:07:20;;;;;;;66.82;27.85;;;;;;;7.63;80.20;100367.81;3136906;28;20044;-66
2022/12/06 03:09:05;;;;;;;60.67;27.63;;;;;;;7.52;80.41;100356.84;3139015;28;20049;-66
2022/12/06 03:10:45;;;;;;;69.65;27.50;;;;;;;8.23;80.49;100469.22;3150652;28;20407;-66
2022/12/06 03:12:29;;;;;;;68.53;28.45;;;;;;;8.24;80.24;100468.31;3142748;28;20090;-66
2022/12/06 03:14:06;;;;;;;72.70;28.67;;;;;;;8.24;80.39;100465.72;3141305;28;20060;-66
2022/12/06 03:15:48;;;;;;;70.78;27.88;;;;;;;8.18;80.51;100458.94;3141021;28;20052;-66
2022/12/06 03:17:29;;;;;;;68.47;30.05;;;;;;;8.24;80.61;100465.72;3140946;28;20098;-65
2022/12/06 03:19:07;;;;;;;72.68;28.75;;;;;;;8.21;80.66;100467.50;3140661;28;20068;-65
2022/12/06 03:20:44;;;;;;;64.47;29.25;;;;;;;8.20;80.62;100465.81;3140745;28;20445;-65
2022/12/06 03:22:22;;;;;;;71.32;28.33;;;;;;;8.04;80.43;100437.69;3140851;28;20056;-65
2022/12/06 03:23:54;;;;;;;71.05;30.25;;;;;;;8.14;80.91;100457.34;3140821;28;20064;-65
2022/12/06 03:25:27;;;;;;;68.03;29.10;;;;;;;8.17;80.97;100462.44;3146422;28;20082;-65
2022/12/06 03:27:02;;;;;;;68.47;30.88;;;;;;;8.15;80.94;100462.47;3147005;28;20059;-65
2022/12/06 03:28:36;;;;;;;65.63;28.88;;;;;;;8.15;81.18;100462.47;3140906;28;20059;-65
2022/12/06 03:30:10;;;;;;;69.40;28.83;;;;;;;8.12;81.11;100453.91;3140832;28;20783;-66
2022/12/06 03:31:45;;;;;;;69.05;27.70;;;;;;;8.14;80.75;100455.59;3140570;28;20509;-65
2022/12/06 03:33:21;;;;;;;68.85;29.42;;;;;;;7.80;80.79;100402.81;3140775;28;20208;-65
2022/12/06 03:34:58;;;;;;;65.47;29.20;;;;;;;8.12;80.77;100457.34;3140487;28;20058;-67
2022/12/06 03:36:32;;;;;;;63.25;27.92;;;;;;;8.11;81.13;100460.84;3140639;28;20608;-66
2022/12/06 03:38:07;;;;;;;72.30;28.95;;;;;;;8.12;80.89;100459.09;3141081;28;20045;-66
2022/12/06 03:39:45;;;;;;;71.07;29.15;;;;;;;8.10;80.94;100453.09;3140518;28;20148;-67
2022/12/06 03:41:21;;;;;;;69.55;30.13;;;;;;;8.05;81.17;100450.63;3140862;28;20487;-67
2022/12/06 03:42:53;;;;;;;68.40;29.10;;;;;;;8.04;81.06;100448.91;3140463;28;20109;-66
2022/12/06 03:44:25;;;;;;;69.78;29.05;;;;;;;8.07;81.51;100448.81;3140536;28;20060;-64
2022/12/06 03:46:08;;;;;;;69.28;28.65;;;;;;;8.07;81.34;100455.75;3141069;28;20060;-64
2022/12/06 03:47:47;;;;;;;70.72;29.55;;;;;;;7.58;81.15;100377.41;3140260;28;20289;-65
2022/12/06 03:49:26;;;;;;;68.60;29.17;;;;;;;8.07;81.70;100453.16;3140629;28;20143;-65
2022/12/06 03:51:04;;;;;;;75.55;30.42;;;;;;;8.07;81.38;100448.81;3140333;28;20056;-65
2022/12/06 03:52:35;;;;;;;72.78;29.08;;;;;;;8.07;81.35;100447.97;3140692;28;20177;-67
2022/12/06 03:54:08;;;;;;;68.50;28.25;;;;;;;8.09;81.34;100447.06;3140739;28;20051;-65
2022/12/06 03:55:41;;;;;;;71.50;29.75;;;;;;;8.08;81.84;100449.69;3140508;28;20124;-66
2022/12/06 03:57:13;;;;;;;72.20;30.77;;;;;;;8.04;81.95;100441.13;3140739;28;20052;-65
2022/12/06 03:58:44;;;;;;;64.32;28.95;;;;;;;8.03;81.50;100439.44;3139075;28;20053;-66
2022/12/06 04:00:17;;;;;;;74.90;30.30;;;;;;;8.01;81.88;100436.00;3140768;28;20052;-66
2022/12/06 04:01:49;;;;;;;71.37;30.93;;;;;;;8.09;81.52;100451.41;3135025;28;20063;-67
2022/12/06 04:03:21;;;;;;;65.55;29.92;;;;;;;8.04;81.59;100442.88;3139930;28;20345;-66
2022/12/06 04:04:53;;;;;;;71.10;30.13;;;;;;;8.06;81.57;100446.28;3140530;28;20422;-67
2022/12/06 04:06:26;;;;;;;74.63;29.40;;;;;;;8.06;81.56;100443.69;3140080;28;20098;-67
2022/12/06 04:07:58;;;;;;;67.13;29.67;;;;;;;7.97;81.71;100432.63;3139942;28;20487;-66
2022/12/06 04:11:19;;;;;;;65.88;28.65;;;;;;;7.90;81.71;100425.91;3140492;28;20052;-64
2022/12/06 04:12:59;;;;;;;76.07;30.35;;;;;;;8.05;82.13;100449.78;3140190;28;20114;-65
2022/12/06 04:14:38;;;;;;;79.60;32.80;;;;;;;7.91;81.88;100424.16;3140202;28;20055;-66
2022/12/06 04:18:17;;;;;;;70.18;30.80;;;;;;;7.69;82.28;100397.88;3139194;28;20044;-65
2022/12/06 04:19:48;;;;;;;71.57;31.15;;;;;;;7.99;82.13;100445.59;3140336;28;20087;-65
2022/12/06 04:23:10;;;;;;;83.10;38.72;;;;;;;8.03;82.44;100441.16;3140441;28;20056;-65
2022/12/06 04:24:42;;;;;;;80.57;32.67;;;;;;;8.02;82.20;100442.06;3140079;28;20568;-65
2022/12/06 04:26:16;;;;;;;69.65;31.60;;;;;;;7.98;82.10;100433.50;3152438;28;20060;-65
2022/12/06 04:38:47;;;;;;;77.38;30.45;;;;;;;7.94;82.70;100430.13;3144669;28;20132;-66
2022/12/06 04:40:18;;;;;;;76.35;30.00;;;;;;;7.91;82.51;100426.75;3145367;28;20118;-66
2022/12/06 04:43:42;;;;;;;70.60;29.38;;;;;;;7.92;82.84;100442.25;3144990;28;20049;-67
2022/12/06 04:45:14;;;;;;;75.25;30.52;;;;;;;7.75;82.77;100410.72;3145290;28;20076;-67
2022/12/06 04:46:45;;;;;;;75.13;30.90;;;;;;;7.93;82.92;100438.81;3144932;28;20052;-66
2022/12/06 04:48:17;;;;;;;69.47;30.30;;;;;;;7.87;82.79;100431.16;3145056;28;20101;-69
2022/12/06 04:49:49;;;;;;;71.28;29.25;;;;;;;7.93;82.85;100444.00;3144989;28;20054;-68
2022/12/06 04:51:22;;;;;;;74.80;30.40;;;;;;;7.38;82.57;100348.53;3144843;28;20048;-68
2022/12/06 04:52:54;;;;;;;66.33;30.57;;;;;;;7.83;82.90;100426.94;3145327;28;20097;-66
2022/12/06 04:54:28;;;;;;;76.65;30.88;;;;;;;7.77;82.73;100421.91;3145026;28;20318;-67
2022/12/06 04:56:00;;;;;;;72.55;29.73;;;;;;;7.81;83.08;100431.31;3145196;28;20079;-67
2022/12/06 04:57:32;;;;;;;74.55;30.38;;;;;;;7.91;83.10;100447.50;3144877;28;20230;-68
2022/12/06 04:59:03;;;;;;;77.30;31.33;;;;;;;7.90;83.07;100446.66;3144884;28;20056;-66
2022/12/06 05:00:35;;;;;;;117.93;47.97;;;;;;;7.92;83.47;100444.84;3144696;28;20542;-68
2022/12/06 05:02:09;;;;;;;93.90;39.17;;;;;;;7.94;83.11;100448.28;3142385;28;20045;-67
2022/12/06 05:03:40;;;;;;;137.48;64.63;;;;;;;7.95;83.37;100447.38;3144710;28;20135;-67
2022/12/06 05:05:12;;;;;;;80.93;34.25;;;;;;;8.00;83.60;100449.03;3144914;28;20052;-66
2022/12/06 05:06:43;;;;;;;67.47;30.38;;;;;;;8.01;83.51;100448.13;3144720;28;20053;-64
2022/12/06 05:08:15;;;;;;;77.45;33.28;;;;;;;8.02;83.71;100455.88;3148070;28;20040;-64
2022/12/06 05:09:49;;;;;;;119.47;51.25;;;;;;;8.03;83.88;100456.72;3144491;28;20123;-66
2022/12/06 05:11:19;;;;;;;;;;;;;;;7.96;83.72;100464.66;3145108;28;20152;-66
2022/12/06 05:12:51;;;;;;;72.13;29.50;;;;;;;7.98;83.80;100460.28;3143443;28;19920;-67
2022/12/06 05:14:23;;;;;;;63.28;27.25;;;;;;;7.92;83.49;100450.03;3143320;28;20445;-66
2022/12/06 05:15:56;;;;;;;61.88;26.25;;;;;;;7.13;83.32;100318.00;3144896;28;20079;-70
2022/12/06 05:17:28;;;;;;;62.00;27.20;;;;;;;7.97;83.62;100462.91;3144399;28;20059;-68
2022/12/06 05:18:59;;;;;;;64.47;28.27;;;;;;;7.99;83.47;100466.34;3144575;28;20056;-67
2022/12/06 05:20:31;;;;;;;77.40;29.67;;;;;;;7.97;83.39;100461.16;3144349;28;20040;-69
2022/12/06 05:22:03;;;;;;;80.00;30.52;;;;;;;7.95;82.87;100459.50;3144755;28;20052;-65
2022/12/06 05:23:35;;;;;;;69.45;27.15;;;;;;;7.81;82.79;100430.44;3144166;28;20057;-65
2022/12/06 05:25:10;;;;;;;69.10;28.85;;;;;;;7.97;82.98;100453.38;3146607;28;20059;-65
2022/12/06 05:26:40;;;;;;;75.38;28.25;;;;;;;7.95;82.89;100455.16;3144308;28;20056;-66
2022/12/06 05:28:12;;;;;;;70.50;27.42;;;;;;;7.93;83.06;100451.78;3144569;28;20123;-67
2022/12/06 05:29:44;;;;;;;68.30;27.45;;;;;;;7.94;83.08;100453.47;3144178;28;20656;-68
2022/12/06 05:31:17;;;;;;;69.63;27.63;;;;;;;7.94;82.61;100457.81;3144282;28;20131;-65
2022/12/06 05:32:49;;;;;;;65.93;25.77;;;;;;;7.93;82.83;100450.94;3144331;28;20044;-66
2022/12/06 05:34:20;;;;;;;59.28;23.48;;;;;;;7.93;82.75;100456.97;3145062;28;20106;-69
2022/12/06 05:35:52;;;;;;;57.33;24.33;;;;;;;7.78;82.71;100427.94;3144121;28;20098;-70
2022/12/06 05:37:24;;;;;;;52.30;23.25;;;;;;;7.92;82.71;100452.63;3144057;28;20151;-68
2022/12/06 05:38:57;;;;;;;55.97;23.85;;;;;;;7.59;82.70;100394.66;3144019;28;20044;-67
2022/12/06 05:40:29;;;;;;;54.80;22.95;;;;;;;7.89;83.02;100447.53;3144484;28;20052;-69
2022/12/06 05:42:01;;;;;;;55.08;22.80;;;;;;;7.92;83.00;100459.56;3144512;28;20121;-71
2022/12/06 05:43:33;;;;;;;54.60;24.38;;;;;;;7.70;82.90;100420.34;3132196;28;20057;-70
2022/12/06 05:45:06;;;;;;;55.25;24.60;;;;;;;7.90;82.94;100451.84;3143183;28;20063;-68
2022/12/06 05:46:38;;;;;;;54.97;24.85;;;;;;;7.89;82.50;100450.13;3144208;28;20048;-69
2022/12/06 05:48:09;;;;;;;53.08;23.95;;;;;;;7.89;82.74;100455.31;3144569;28;20041;-66
2022/12/06 05:49:40;;;;;;;56.42;26.65;;;;;;;7.87;82.65;100451.91;3144154;28;20191;-68
2022/12/06 05:51:12;;;;;;;56.33;24.52;;;;;;;7.87;82.74;100457.09;3144321;28;20044;-64
2022/12/06 05:52:44;;;;;;;55.15;25.90;;;;;;;7.87;82.42;100453.66;3143995;28;20498;-65
2022/12/06 05:54:16;;;;;;;63.35;28.25;;;;;;;7.86;82.72;100455.38;3144558;28;20109;-65
2022/12/06 05:55:50;;;;;;;55.83;25.58;;;;;;;7.58;82.61;100407.69;3143911;28;20056;-66
2022/12/06 05:57:22;;;;;;;54.08;23.33;;;;;;;7.85;82.50;100456.28;3143904;28;20048;-65
2022/12/06 05:58:54;;;;;;;55.33;22.88;;;;;;;7.82;82.60;100447.72;3143153;28;20056;-64
2022/12/06 06:00:26;;;;;;;55.42;22.88;;;;;;;7.87;82.48;100462.28;3144154;28;20059;-65
2022/12/06 06:01:58;;;;;;;48.42;21.27;;;;;;;7.87;82.84;100458.84;3144199;28;20044;-64
2022/12/06 06:03:29;;;;;;;47.08;21.67;;;;;;;7.87;82.65;100461.44;3143985;28;20094;-68
2022/12/06 06:05:02;;;;;;;253.40;114.18;;;;;;;7.88;82.67;100457.94;3144355;28;20151;-68
2022/12/06 06:06:34;;;;;;;95.32;40.55;;;;;;;7.88;83.01;100457.94;3144395;28;20501;-67
2022/12/06 06:08:06;;;;;;;114.60;53.83;;;;;;;7.88;82.88;100453.63;3144290;28;20496;-67
2022/12/06 06:09:38;;;;;;;64.05;30.48;;;;;;;7.90;83.05;100461.38;3143982;28;20083;-66
2022/12/06 06:11:11;;;;;;;57.50;23.98;;;;;;;7.93;82.75;100461.31;3144152;28;20048;-66
2022/12/06 06:12:44;;;;;;;56.92;23.25;;;;;;;7.86;82.81;100455.38;3143888;28;20441;-64
2022/12/06 06:14:15;;;;;;;55.55;25.33;;;;;;;7.92;82.78;100460.41;3144225;28;20491;-65
2022/12/06 06:15:48;;;;;;;56.65;25.48;;;;;;;7.93;82.67;100459.56;3143978;28;20049;-66
2022/12/06 06:17:20;;;;;;;51.95;23.00;;;;;;;7.93;82.72;100464.75;3143708;28;20427;-65
2022/12/06 06:18:52;;;;;;;58.80;23.40;;;;;;;7.93;82.66;100459.56;3143947;28;20386;-67
2022/12/06 06:20:24;;;;;;;59.35;25.08;;;;;;;7.92;82.80;100457.81;3144201;28;20121;-67
2022/12/06 06:21:56;;;;;;;51.83;23.38;;;;;;;7.91;82.69;100452.69;3143317;28;20048;-64
2022/12/06 06:23:28;;;;;;;58.17;24.75;;;;;;;7.86;82.43;100445.00;3143911;28;20121;-65
2022/12/06 06:25:00;;;;;;;64.60;24.77;;;;;;;7.87;82.80;100440.69;3145741;28;20059;-66
2022/12/06 06:26:34;;;;;;;92.43;41.38;;;;;;;7.95;82.55;100451.72;3151104;28;20052;-65
2022/12/06 06:28:06;;;;;;;89.70;38.75;;;;;;;7.96;82.62;100446.50;3143948;28;20048;-66
2022/12/06 06:29:37;;;;;;;162.75;77.97;;;;;;;7.82;82.48;100420.06;3144449;28;20044;-66
2022/12/06 06:31:09;;;;;;;71.68;31.08;;;;;;;8.00;82.88;100438.66;3143033;28;20052;-64
2022/12/06 06:32:41;;;;;;;70.53;27.45;;;;;;;7.94;82.75;100430.13;3142765;28;20102;-68
2022/12/06 06:34:14;;;;;;;62.13;25.35;;;;;;;8.01;82.82;100448.13;3142985;28;20441;-65
2022/12/06 06:35:46;;;;;;;59.30;26.05;;;;;;;8.01;82.50;100442.94;3142107;28;20056;-65
2022/12/06 06:37:17;;;;;;;57.17;25.52;;;;;;;8.02;82.72;100442.06;3142702;28;20056;-66
2022/12/06 06:38:49;;;;;;;57.25;26.50;;;;;;;8.02;82.47;100450.69;3142172;28;20449;-67
2022/12/06 06:40:22;;;;;;;61.60;28.80;;;;;;;8.01;82.59;100443.78;3142485;28;20135;-66
2022/12/06 06:41:55;;;;;;;59.35;27.08;;;;;;;8.02;82.74;100444.66;3142661;28;20102;-65
2022/12/06 06:43:29;;;;;;;70.00;28.73;;;;;;;8.00;82.55;100439.50;3143702;28;20044;-68
2022/12/06 06:45:00;;;;;;;64.47;27.45;;;;;;;7.97;82.57;100435.25;3143817;28;20074;-68
2022/12/06 06:46:32;;;;;;;60.25;26.17;;;;;;;8.02;82.27;100442.06;3143250;28;20048;-69
2022/12/06 06:48:04;;;;;;;56.67;25.73;;;;;;;8.03;82.35;100442.03;3143719;28;20506;-68
2022/12/06 06:49:37;;;;;;;65.95;26.63;;;;;;;8.04;82.18;100440.28;3143696;28;20048;-65
2022/12/06 06:51:10;;;;;;;61.97;24.85;;;;;;;8.06;82.11;100443.69;3144007;28;20160;-66
2022/12/06 06:52:42;;;;;;;63.42;26.13;;;;;;;8.07;82.34;100442.78;3143555;28;20461;-64
2022/12/06 06:54:15;;;;;;;60.30;26.08;;;;;;;8.10;82.38;100450.50;3143157;28;20053;-67
2022/12/06 06:55:48;;;;;;;62.17;26.38;;;;;;;8.11;82.50;100449.63;3143848;28;20135;-66
2022/12/06 06:57:21;;;;;;;63.50;26.15;;;;;;;8.11;82.40;100453.06;3143884;28;20052;-66
2022/12/06 06:58:53;;;;;;;61.22;25.65;;;;;;;8.13;82.60;100458.19;3143401;28;20586;-65
2022/12/06 07:00:25;;;;;;;54.95;24.95;;;;;;;8.15;82.27;100456.44;3143786;28;20056;-66
2022/12/06 07:01:57;;;;;;;56.55;25.70;;;;;;;8.03;82.17;100425.59;3144064;28;20055;-67
2022/12/06 07:03:29;;;;;;;60.60;25.48;;;;;;;8.19;82.15;100448.56;3143193;28;20048;-66
2022/12/06 07:05:00;;;;;;;62.95;26.25;;;;;;;8.07;82.03;100433.25;3138934;28;20609;-66
2022/12/06 07:06:32;;;;;;;57.50;25.98;;;;;;;8.06;82.00;100430.72;3140733;28;20413;-68
2022/12/06 07:08:05;;;;;;;65.07;27.55;;;;;;;8.24;82.16;100458.78;3143483;28;20386;-67
2022/12/06 07:09:37;;;;;;;66.03;26.40;;;;;;;8.25;82.17;100451.84;3143422;28;20106;-66
2022/12/06 07:11:10;;;;;;;66.57;27.55;;;;;;;8.21;81.75;100446.75;3143683;28;20045;-67
2022/12/06 07:12:44;;;;;;;65.40;26.67;;;;;;;8.30;82.00;100450.84;3143881;28;20079;-68
2022/12/06 07:14:15;;;;;;;60.83;25.80;;;;;;;8.29;81.91;100454.34;3144240;28;20060;-70
2022/12/06 07:15:47;;;;;;;55.15;25.45;;;;;;;8.31;81.71;100449.09;3143601;28;20059;-68
2022/12/06 07:17:19;;;;;;;64.22;26.13;;;;;;;8.32;81.53;100456.03;3143519;28;20052;-68
2022/12/06 07:18:51;;;;;;;60.17;27.80;;;;;;;8.33;81.48;100448.19;3144199;28;20437;-66
2022/12/06 07:20:23;;;;;;;60.63;27.35;;;;;;;8.35;81.26;100443.81;3144151;28;20495;-67
2022/12/06 07:21:55;;;;;;;63.53;27.17;;;;;;;8.37;81.68;100447.22;3143626;28;20053;-68
2022/12/06 07:23:27;;;;;;;68.20;27.23;;;;;;;8.36;81.14;100444.66;3143485;28;20049;-67
2022/12/06 07:24:59;;;;;;;65.05;26.95;;;;;;;8.41;81.59;100448.88;3145254;28;20049;-68
2022/12/06 07:26:31;;;;;;;60.88;25.48;;;;;;;8.08;81.15;100383.09;3153924;28;20429;-67
2022/12/06 07:28:04;;;;;;;57.17;25.67;;;;;;;8.47;81.05;100439.22;3143768;28;20933;-70
2022/12/06 07:29:37;;;;;;;61.22;26.30;;;;;;;8.43;80.86;100431.53;3143547;28;20048;-69
2022/12/06 07:31:10;;;;;;;61.42;25.65;;;;;;;8.49;80.98;100437.44;3143575;28;20071;-67